Time;durP1;ratioP1;P1;durP2;ratioP2;P2;SDS_P1;SDS_P2;PMS_P1;PMS_P2;Temp;Humidity;BMP_temperature;BMP_pressure;BME280_temperature;BME280_humidity;BME280_pressure;Samples;Min_cycle;Max_cycle;Signal;HPM_P1;HPM_P2
2022/04/13 00:01:54;;;;;;;4.40;2.35;;;;;;;9.94;75.68;97031.84;5048952;28;20108;-62
2022/04/13 00:04:21;;;;;;;3.83;2.05;;;;;;;10.04;75.01;97030.31;5053265;28;20058;-62
2022/04/13 00:06:47;;;;;;;5.78;2.30;;;;;;;9.97;75.17;97033.22;5066265;28;20090;-61
2022/04/13 00:09:15;;;;;;;4.55;2.50;;;;;;;10.17;73.90;97034.50;5057830;28;20048;-61
2022/04/13 00:11:41;;;;;;;4.97;2.75;;;;;;;10.34;73.17;97029.75;5046495;28;20044;-61
2022/04/13 00:14:08;;;;;;;5.38;2.67;;;;;;;10.72;70.81;97032.47;5046653;28;20516;-62
2022/04/13 00:16:35;;;;;;;5.00;2.60;;;;;;;11.11;68.93;97039.47;5046786;28;20049;-62
2022/04/13 00:19:01;;;;;;;6.95;2.40;;;;;;;11.44;67.39;97037.44;5047396;28;20132;-62
2022/04/13 00:21:28;;;;;;;5.32;2.63;;;;;;;11.59;66.98;97041.28;5062956;28;20526;-61
2022/04/13 00:23:56;;;;;;;5.95;2.60;;;;;;;11.81;65.78;97038.34;5058614;28;20040;-61
2022/04/13 00:26:24;;;;;;;4.95;2.80;;;;;;;11.86;65.81;97039.44;5074205;28;20040;-62
2022/04/13 00:28:50;;;;;;;5.10;2.08;;;;;;;11.77;65.78;97037.25;5056241;28;20172;-62
2022/04/13 00:31:17;;;;;;;4.22;2.65;;;;;;;11.69;66.22;97044.00;5046960;28;20095;-62
2022/04/13 00:33:43;;;;;;;6.65;2.70;;;;;;;11.65;66.77;97034.78;5055884;28;20048;-62
2022/04/13 00:36:10;;;;;;;4.72;2.70;;;;;;;11.50;66.89;97032.84;5046200;28;20041;-62
2022/04/13 00:38:37;;;;;;;4.57;2.50;;;;;;;11.37;67.68;97034.16;5046798;28;20048;-62
2022/04/13 00:41:03;;;;;;;5.97;2.83;;;;;;;11.57;66.15;97033.41;5046564;28;20040;-61
2022/04/13 00:43:30;;;;;;;5.72;2.50;;;;;;;11.95;64.58;97041.34;5056344;28;20044;-62
2022/04/13 00:45:56;;;;;;;6.28;2.92;;;;;;;11.81;65.30;97043.78;5046619;28;20483;-62
2022/04/13 00:48:35;;;;;;;5.90;2.70;;;;;;;11.64;66.40;97037.78;5047598;28;20037;-62
2022/04/13 00:51:02;;;;;;;5.05;2.85;;;;;;;11.51;66.80;97045.31;5047394;28;20049;-62
2022/04/13 00:53:30;;;;;;;7.47;3.30;;;;;;;11.37;67.31;97041.47;5045879;28;20098;-62
2022/04/13 00:55:58;;;;;;;5.18;2.63;;;;;;;11.20;68.17;97045.19;5051785;28;20040;-62
2022/04/13 00:58:32;;;;;;;7.15;3.10;;;;;;;11.06;68.75;97039.44;5064305;28;20534;-60
2022/04/13 01:01:03;;;;;;;5.07;2.17;;;;;;;10.92;69.18;97049.94;5064413;28;20040;-61
2022/04/13 01:03:30;;;;;;;9.50;3.55;;;;;;;10.89;69.11;97048.56;5047033;28;20045;-61
2022/04/13 01:05:57;;;;;;;4.88;2.38;;;;;;;10.80;69.72;97050.13;5050392;28;20563;-62
2022/04/13 01:08:27;;;;;;;5.43;3.38;;;;;;;10.72;70.21;97056.03;5061352;28;20036;-61
2022/04/13 01:10:54;;;;;;;6.90;2.95;;;;;;;10.75;69.86;97047.38;5065303;28;20052;-61
2022/04/13 01:13:21;;;;;;;5.53;2.90;;;;;;;10.91;69.09;97051.81;5056586;28;20036;-62
2022/04/13 01:15:48;;;;;;;5.03;2.55;;;;;;;10.98;68.73;97065.13;5055236;28;20508;-61
2022/04/13 01:18:18;;;;;;;5.53;2.67;;;;;;;11.02;68.93;97060.03;5060705;28;20048;-62
2022/04/13 01:20:52;;;;;;;5.00;3.03;;;;;;;10.97;68.64;97065.38;5065216;28;20044;-62
2022/04/13 01:23:22;;;;;;;5.65;2.83;;;;;;;10.91;69.09;97059.16;5078834;28;20039;-62
2022/04/13 01:25:50;;;;;;;7.22;2.97;;;;;;;10.72;70.02;97059.56;5068364;28;20044;-62
2022/04/13 01:28:17;;;;;;;6.57;3.00;;;;;;;10.67;70.02;97064.94;5084703;28;20563;-62
2022/04/13 01:30:44;;;;;;;5.55;3.10;;;;;;;10.53;70.67;97061.84;5044680;28;20040;-61
2022/04/13 01:33:11;;;;;;;8.00;3.47;;;;;;;10.44;70.86;97060.66;5060611;28;20055;-62
2022/04/13 01:35:38;;;;;;;5.50;2.80;;;;;;;10.26;71.75;97068.09;5046814;28;20056;-62
2022/04/13 01:38:05;;;;;;;5.78;3.03;;;;;;;10.21;71.78;97068.06;5048310;28;20423;-61
2022/04/13 01:40:32;;;;;;;4.85;2.65;;;;;;;10.15;72.14;97070.72;5061735;28;20043;-61
2022/04/13 01:42:58;;;;;;;6.68;3.80;;;;;;;10.14;72.27;97071.00;5065867;28;20045;-61
2022/04/13 01:45:26;;;;;;;5.45;3.10;;;;;;;10.22;71.81;97067.81;5049086;28;20508;-61
2022/04/13 01:47:52;;;;;;;6.25;3.20;;;;;;;10.28;71.63;97069.47;5045403;28;20045;-61
2022/04/13 01:50:20;;;;;;;6.13;2.92;;;;;;;10.33;71.62;97084.97;5046034;28;20633;-62
2022/04/13 01:52:47;;;;;;;5.78;2.90;;;;;;;10.33;71.36;97082.25;5055645;28;20154;-62
2022/04/13 01:55:15;;;;;;;4.32;2.58;;;;;;;10.33;71.46;97090.38;5055843;28;20043;-62
2022/04/13 01:57:42;;;;;;;4.90;2.95;;;;;;;10.17;72.10;97089.41;5051284;28;20040;-62
2022/04/13 02:00:12;;;;;;;4.00;2.42;;;;;;;9.97;72.68;97092.72;5059770;28;20167;-62
2022/04/13 02:02:39;;;;;;;5.20;3.10;;;;;;;9.78;73.36;97094.97;5057620;28;20037;-62
2022/04/13 02:05:06;;;;;;;5.15;2.50;;;;;;;9.61;74.11;97087.75;5049966;28;20051;-62
2022/04/13 02:07:34;;;;;;;4.78;2.78;;;;;;;9.44;74.54;97093.22;5057022;28;20144;-62
2022/04/13 02:10:00;;;;;;;6.60;2.38;;;;;;;9.27;75.27;97095.97;5050185;28;20427;-62
2022/04/13 02:12:27;;;;;;;6.05;3.08;;;;;;;8.95;76.84;97097.44;5045149;28;20094;-62
2022/04/13 02:14:54;;;;;;;5.07;2.97;;;;;;;8.70;77.95;97099.50;5047508;28;20045;-62
2022/04/13 02:17:21;;;;;;;6.18;3.10;;;;;;;8.63;78.13;97096.19;5062337;28;20048;-62
2022/04/13 02:19:47;;;;;;;11.13;3.00;;;;;;;8.61;78.58;97100.16;5063635;28;20223;-62
2022/04/13 02:22:14;;;;;;;6.22;2.80;;;;;;;8.64;78.94;97096.97;5062055;28;20036;-62
2022/04/13 02:25:02;;;;;;;4.93;2.75;;;;;;;8.67;78.47;97105.38;5063775;28;20041;-62
2022/04/13 02:27:28;;;;;;;4.00;2.35;;;;;;;8.67;77.98;97091.09;5081048;28;20082;-62
2022/04/13 02:29:55;;;;;;;5.65;2.80;;;;;;;8.63;78.42;97089.94;5055837;28;20550;-61
2022/04/13 02:32:22;;;;;;;5.82;2.80;;;;;;;8.55;78.67;97092.00;5047012;28;20029;-61
2022/04/13 02:34:49;;;;;;;6.63;3.17;;;;;;;8.48;79.20;97094.03;5044325;28;20045;-61
2022/04/13 02:37:16;;;;;;;7.68;3.30;;;;;;;8.48;79.14;97091.31;5065374;28;20040;-62
2022/04/13 02:39:46;;;;;;;7.15;3.38;;;;;;;8.48;79.15;97093.19;5065763;28;20051;-62
2022/04/13 02:42:14;;;;;;;5.10;2.75;;;;;;;8.42;79.51;97092.28;5049055;28;20037;-62
2022/04/13 02:44:42;;;;;;;7.68;3.13;;;;;;;8.44;79.56;97101.78;5064624;28;20123;-62
2022/04/13 02:47:08;;;;;;;8.00;3.15;;;;;;;8.49;79.31;97092.97;5046800;28;20041;-61
2022/04/13 02:49:35;;;;;;;7.53;3.13;;;;;;;8.53;78.93;97090.59;5049546;28;20052;-62
2022/04/13 02:52:03;;;;;;;6.70;3.22;;;;;;;8.54;78.72;97089.53;5047943;28;20041;-62
2022/04/13 02:54:30;;;;;;;5.40;2.72;;;;;;;8.54;78.65;97090.38;5047467;28;20048;-62
2022/04/13 02:56:56;;;;;;;8.57;3.00;;;;;;;8.58;78.07;97093.38;5049268;28;20408;-62
2022/04/13 02:59:23;;;;;;;6.40;2.80;;;;;;;8.55;78.22;97096.59;5048509;28;20049;-62
2022/04/13 03:01:49;;;;;;;6.05;2.63;;;;;;;8.56;78.03;97090.13;5051251;28;20105;-62
2022/04/13 03:04:16;;;;;;;5.45;2.88;;;;;;;8.63;77.57;97090.78;5048833;28;20052;-62
2022/04/13 03:06:43;;;;;;;5.72;2.80;;;;;;;8.68;77.06;97093.56;5055703;28;20040;-62
2022/04/13 03:09:10;;;;;;;5.78;2.83;;;;;;;8.68;76.80;97093.56;5067667;28;20467;-61
2022/04/13 03:11:38;;;;;;;8.65;2.88;;;;;;;8.71;76.48;97087.63;5067406;28;20036;-61
2022/04/13 03:14:04;;;;;;;6.20;2.90;;;;;;;8.70;76.77;97094.13;5046720;28;20045;-61
2022/04/13 03:16:31;;;;;;;5.97;2.83;;;;;;;8.70;77.36;97099.50;5062319;28;20086;-62
2022/04/13 03:18:58;;;;;;;5.45;2.72;;;;;;;8.65;77.04;97091.34;5046634;28;20049;-62
2022/04/13 03:21:24;;;;;;;7.40;3.05;;;;;;;8.63;77.41;97098.06;5051005;28;20045;-61
2022/04/13 03:23:51;;;;;;;7.43;3.35;;;;;;;8.63;77.67;97096.19;5052349;28;20040;-62
2022/04/13 03:26:17;;;;;;;5.05;2.90;;;;;;;8.50;77.67;97091.88;5071752;28;20560;-62
2022/04/13 03:28:44;;;;;;;5.30;3.05;;;;;;;8.25;78.51;97100.38;5088751;28;20062;-62
2022/04/13 03:31:10;;;;;;;6.18;3.70;;;;;;;8.18;78.67;97095.94;5066228;28;20040;-62
2022/04/13 03:33:37;;;;;;;5.35;3.00;;;;;;;8.09;79.51;97107.38;5059867;28;20045;-62
2022/04/13 03:36:04;;;;;;;6.75;2.90;;;;;;;8.06;79.40;97097.88;5064630;28;20056;-62
2022/04/13 03:38:30;;;;;;;7.63;3.53;;;;;;;8.00;79.21;97109.66;5054534;28;20053;-62
2022/04/13 03:40:57;;;;;;;5.57;2.92;;;;;;;7.97;79.19;97099.34;5048041;28;20041;-62
2022/04/13 03:43:26;;;;;;;4.40;2.50;;;;;;;8.00;78.82;97104.25;5048125;28;20443;-62
2022/04/13 03:45:53;;;;;;;5.90;2.72;;;;;;;7.99;78.81;97102.63;5047362;28;20053;-62
2022/04/13 03:48:20;;;;;;;7.72;2.80;;;;;;;7.90;79.06;97111.09;5047826;28;20539;-62
2022/04/13 03:50:46;;;;;;;6.32;2.80;;;;;;;7.99;78.64;97105.34;5048883;28;20887;-62
2022/04/13 03:53:13;;;;;;;6.30;2.90;;;;;;;7.88;77.84;97113.22;5065130;28;20041;-62
2022/04/13 03:55:39;;;;;;;6.97;2.78;;;;;;;7.91;77.92;97122.69;5064883;28;20045;-62
2022/04/13 03:58:06;;;;;;;8.57;2.80;;;;;;;7.89;77.79;97117.53;5067800;28;20144;-62
2022/04/13 04:00:33;;;;;;;4.95;2.30;;;;;;;7.97;77.68;97113.66;5049139;28;20504;-62
2022/04/13 04:03:00;;;;;;;6.25;2.80;;;;;;;8.08;76.59;97114.66;5057666;28;20040;-62
2022/04/13 04:05:27;;;;;;;5.15;2.20;;;;;;;7.97;77.08;97119.06;5046884;28;20128;-61
2022/04/13 04:07:54;;;;;;;4.07;1.90;;;;;;;8.03;76.65;97117.25;5062001;28;20041;-61
2022/04/13 04:10:20;;;;;;;5.30;2.30;;;;;;;8.25;75.82;97116.56;5067864;28;20037;-61
2022/04/13 04:12:47;;;;;;;3.83;2.33;;;;;;;8.41;75.31;97118.44;5064247;28;20032;-61
2022/04/13 04:15:13;;;;;;;6.40;2.60;;;;;;;8.52;74.92;97119.44;5046111;28;20044;-62
2022/04/13 04:17:40;;;;;;;4.82;2.70;;;;;;;8.46;74.60;97115.84;5062313;28;20534;-62
2022/04/13 04:20:08;;;;;;;5.68;2.70;;;;;;;8.41;75.27;97114.94;5047200;28;20041;-62
2022/04/13 04:22:35;;;;;;;7.00;2.95;;;;;;;8.43;74.93;97118.19;5059793;28;20036;-62
2022/04/13 04:25:07;;;;;;;7.47;2.63;;;;;;;8.29;76.04;97115.03;5068021;28;20076;-61
2022/04/13 04:27:34;;;;;;;5.85;2.58;;;;;;;8.19;76.23;97124.56;5066019;28;20534;-61
2022/04/13 04:30:00;;;;;;;7.32;2.67;;;;;;;8.05;76.96;97123.22;5056763;28;20045;-61
2022/04/13 04:32:27;;;;;;;5.55;2.63;;;;;;;7.99;77.00;97121.50;5054458;28;20036;-62
2022/04/13 04:34:54;;;;;;;9.45;3.22;;;;;;;7.92;77.59;97125.16;5054080;28;20067;-61
2022/04/13 04:37:20;;;;;;;6.40;2.78;;;;;;;7.86;77.67;97128.81;5065084;28;20057;-61
2022/04/13 04:39:47;;;;;;;10.48;3.08;;;;;;;7.88;77.95;97129.38;5055395;28;20044;-61
2022/04/13 04:42:13;;;;;;;5.20;2.90;;;;;;;7.88;78.12;97124.00;5044762;28;20037;-61
2022/04/13 04:44:40;;;;;;;8.40;2.85;;;;;;;7.88;77.77;97126.69;5057489;28;20047;-61
2022/04/13 04:47:07;;;;;;;7.95;3.08;;;;;;;7.82;78.16;97122.28;5062882;28;20048;-61
2022/04/13 04:49:33;;;;;;;7.43;2.97;;;;;;;7.77;78.77;97124.84;5044577;28;20110;-62
2022/04/13 04:52:00;;;;;;;6.88;2.72;;;;;;;7.66;79.04;97121.97;5055563;28;20052;-62
2022/04/13 04:54:26;;;;;;;10.95;3.00;;;;;;;7.66;79.10;97123.81;5047565;28;20051;-61
2022/04/13 04:56:53;;;;;;;6.05;2.92;;;;;;;7.72;78.75;97130.16;5058964;28;20048;-61
2022/04/13 04:59:19;;;;;;;8.80;3.13;;;;;;;7.71;79.16;97132.03;5045102;28;20408;-61
2022/04/13 05:01:46;;;;;;;6.55;3.00;;;;;;;7.74;79.19;97134.22;5051852;28;20063;-61
2022/04/13 05:04:12;;;;;;;8.13;3.00;;;;;;;7.66;79.31;97135.44;5070761;28;20083;-61
2022/04/13 05:06:45;;;;;;;9.50;2.97;;;;;;;7.69;79.23;97128.75;5058490;28;20048;-61
2022/04/13 05:09:12;;;;;;;7.50;3.10;;;;;;;7.70;79.51;97135.78;5073126;28;20044;-61
2022/04/13 05:11:38;;;;;;;8.98;3.33;;;;;;;7.72;79.40;97135.53;5073418;28;20044;-61
2022/04/13 05:14:05;;;;;;;9.18;3.25;;;;;;;7.79;79.58;97141.63;5055295;28;20553;-61
2022/04/13 05:16:31;;;;;;;6.82;3.72;;;;;;;7.91;78.87;97139.69;5072919;28;20469;-61
2022/04/13 05:18:58;;;;;;;6.10;2.97;;;;;;;7.97;78.66;97146.00;5070926;28;20044;-62
2022/04/13 05:21:25;;;;;;;5.57;3.25;;;;;;;8.11;78.20;97143.81;5065102;28;20044;-61
2022/04/13 05:23:51;;;;;;;8.35;3.90;;;;;;;8.10;78.62;97139.50;5067118;28;20044;-62
2022/04/13 05:26:18;;;;;;;8.50;3.72;;;;;;;7.98;79.26;97149.50;5064631;28;20043;-62
2022/04/13 05:28:47;;;;;;;5.85;3.25;;;;;;;8.06;78.89;97154.50;5057554;28;20132;-61
2022/04/13 05:31:14;;;;;;;5.03;3.15;;;;;;;8.14;78.37;97150.63;5047236;28;20110;-61
2022/04/13 05:33:41;;;;;;;6.85;3.15;;;;;;;8.26;78.38;97155.97;5052176;28;20101;-61
2022/04/13 05:36:08;;;;;;;11.23;2.80;;;;;;;8.36;77.76;97156.13;5060446;28;20450;-61
2022/04/13 05:38:34;;;;;;;7.18;3.20;;;;;;;8.51;77.38;97160.19;5050585;28;20597;-61
2022/04/13 05:41:01;;;;;;;8.52;3.65;;;;;;;8.47;77.62;97162.53;5056018;28;20485;-61
2022/04/13 05:43:33;;;;;;;7.43;3.40;;;;;;;8.48;78.19;97169.59;5042249;28;20091;-61
2022/04/13 05:46:00;;;;;;;9.82;3.60;;;;;;;8.55;77.67;97167.56;5045400;28;20036;-61
2022/04/13 05:48:26;;;;;;;7.97;4.30;;;;;;;8.65;77.54;97174.19;5061017;28;20048;-61
2022/04/13 05:50:53;;;;;;;8.65;5.03;;;;;;;8.80;77.15;97173.63;5058878;28;20562;-61
2022/04/13 05:53:21;;;;;;;12.68;4.90;;;;;;;8.90;76.86;97179.19;5064817;28;20111;-61
2022/04/13 05:55:55;;;;;;;8.70;4.65;;;;;;;8.96;76.76;97175.50;5045173;28;20048;-61
2022/04/13 05:58:24;;;;;;;9.07;4.38;;;;;;;9.14;76.59;97180.91;5053009;28;20048;-61
2022/04/13 06:00:50;;;;;;;9.85;4.65;;;;;;;9.27;76.08;97180.56;5053788;28;20048;-61
2022/04/13 06:03:18;;;;;;;8.00;4.03;;;;;;;9.41;75.35;97186.44;5059572;28;20040;-62
2022/04/13 06:06:05;;;;;;;8.32;4.28;;;;;;;9.55;75.19;97183.38;5070932;28;20086;-62
2022/04/13 06:08:31;;;;;;;7.07;3.72;;;;;;;9.69;74.92;97183.81;5066216;28;20051;-62
2022/04/13 06:10:58;;;;;;;8.88;4.35;;;;;;;9.84;74.50;97189.41;5062010;28;20293;-61
2022/04/13 06:13:24;;;;;;;7.22;3.58;;;;;;;9.98;74.05;97184.44;5082891;28;20047;-62
2022/04/13 06:15:51;;;;;;;10.57;4.10;;;;;;;10.17;73.75;97186.78;5063145;28;20541;-61
2022/04/13 06:18:18;;;;;;;7.22;3.70;;;;;;;10.38;72.50;97187.84;5057427;28;20055;-61
2022/04/13 06:20:45;;;;;;;11.68;3.50;;;;;;;10.60;72.18;97184.28;5043820;28;20049;-62
2022/04/13 06:23:12;;;;;;;9.35;3.60;;;;;;;10.82;70.97;97190.69;5064314;28;20407;-62
2022/04/13 06:25:38;;;;;;;6.57;4.03;;;;;;;10.97;70.54;97193.53;5060224;28;20332;-62
2022/04/13 06:28:05;;;;;;;6.30;2.92;;;;;;;11.15;70.21;97191.50;5064551;28;20044;-61
2022/04/13 06:30:32;;;;;;;5.90;3.15;;;;;;;11.25;69.48;97198.88;5045361;28;20095;-61
2022/04/13 06:32:58;;;;;;;6.38;3.33;;;;;;;11.34;69.27;97202.72;5061942;28;20037;-61
2022/04/13 06:35:26;;;;;;;6.57;3.20;;;;;;;11.49;69.28;97204.72;5046858;28;20041;-61
2022/04/13 06:37:52;;;;;;;6.63;2.72;;;;;;;11.67;68.37;97206.19;5044252;28;20041;-62
2022/04/13 06:40:19;;;;;;;10.25;3.15;;;;;;;11.80;67.80;97204.09;5045586;28;20246;-61
2022/04/13 06:42:46;;;;;;;4.50;2.35;;;;;;;11.92;67.54;97206.56;5048508;28;20098;-61
2022/04/13 06:45:14;;;;;;;7.88;3.55;;;;;;;12.10;66.74;97210.75;5051189;28;20077;-62
2022/04/13 06:47:41;;;;;;;5.47;2.70;;;;;;;12.23;66.60;97212.97;5046676;28;20411;-62
2022/04/13 06:50:10;;;;;;;13.65;3.13;;;;;;;12.31;66.14;97208.91;5050497;28;20041;-62
2022/04/13 06:52:38;;;;;;;9.30;2.65;;;;;;;12.52;65.18;97208.13;5044941;28;20037;-62
2022/04/13 06:55:06;;;;;;;5.13;2.25;;;;;;;12.69;64.24;97207.91;5049908;28;20054;-61
2022/04/13 06:57:33;;;;;;;8.13;2.13;;;;;;;12.83;64.69;97211.72;5053076;28;20099;-60
2022/04/13 07:00:00;;;;;;;6.65;2.38;;;;;;;12.95;62.83;97213.34;5049449;28;20055;-61
2022/04/13 07:02:28;;;;;;;6.57;2.38;;;;;;;13.16;61.89;97216.06;5042993;28;20567;-60
2022/04/13 07:04:54;;;;;;;6.43;2.80;;;;;;;13.34;60.49;97217.41;5069961;28;20056;-58
2022/04/13 07:07:21;;;;;;;5.90;2.20;;;;;;;13.51;59.97;97219.88;5059498;28;20239;-61
2022/04/13 07:09:48;;;;;;;9.55;2.35;;;;;;;13.65;59.67;97220.13;5075035;28;20275;-58
2022/04/13 07:12:15;;;;;;;5.40;1.73;;;;;;;13.86;59.57;97223.56;5049416;28;20044;-61
2022/04/13 07:14:41;;;;;;;8.15;2.30;;;;;;;13.97;58.42;97229.81;5041501;28;20519;-61
2022/04/13 07:17:09;;;;;;;4.07;2.10;;;;;;;14.23;59.17;97220.72;5041175;28;20056;-61
2022/04/13 07:19:37;;;;;;;6.88;2.70;;;;;;;14.46;58.85;97221.97;5050256;28;20542;-61
2022/04/13 07:22:03;;;;;;;4.72;2.45;;;;;;;14.59;57.72;97222.44;5047484;28;20044;-64
2022/04/13 07:24:36;;;;;;;6.22;2.35;;;;;;;14.65;56.71;97221.31;5055464;28;20049;-65
2022/04/13 07:27:03;;;;;;;6.70;2.80;;;;;;;14.67;57.01;97216.41;5054276;28;20068;-65
2022/04/13 07:29:30;;;;;;;6.85;2.10;;;;;;;14.75;55.40;97214.97;5058086;28;20068;-64
2022/04/13 07:31:56;;;;;;;4.47;2.00;;;;;;;14.98;54.77;97224.38;5053153;28;20147;-64
2022/04/13 07:34:23;;;;;;;3.33;1.70;;;;;;;15.04;53.92;97227.91;5058519;28;20072;-65
2022/04/13 07:36:50;;;;;;;4.45;1.70;;;;;;;15.18;53.42;97233.47;5056344;28;20450;-66
2022/04/13 07:39:16;;;;;;;5.45;1.90;;;;;;;15.20;53.52;97239.47;5063731;28;20101;-62
2022/04/13 07:41:43;;;;;;;3.58;1.55;;;;;;;15.25;53.19;97236.72;5057177;28;20047;-65
2022/04/13 07:44:11;;;;;;;4.72;1.85;;;;;;;15.34;52.79;97239.66;5063907;28;20572;-65
2022/04/13 07:46:38;;;;;;;4.95;1.77;;;;;;;15.37;53.33;97235.53;5057636;28;20519;-65
2022/04/13 07:49:06;;;;;;;4.82;1.80;;;;;;;15.41;53.12;97247.50;5058454;28;20530;-65
2022/04/13 07:51:33;;;;;;;4.60;1.60;;;;;;;15.44;52.64;97250.44;5055231;28;20043;-64
2022/04/13 07:54:03;;;;;;;4.40;1.73;;;;;;;15.46;51.84;97245.53;5053056;28;20277;-64
2022/04/13 07:56:49;;;;;;;6.15;1.40;;;;;;;15.52;50.18;97240.03;5057271;28;20041;-65
2022/04/13 07:59:16;;;;;;;4.20;1.40;;;;;;;15.64;50.09;97247.81;5046951;28;20400;-65
2022/04/13 08:01:42;;;;;;;3.80;1.67;;;;;;;15.73;49.24;97249.63;5064490;28;20098;-65
2022/04/13 08:04:09;;;;;;;4.88;1.75;;;;;;;15.81;48.81;97250.13;5050764;28;20041;-65
2022/04/13 08:06:53;;;;;;;3.95;1.30;;;;;;;15.84;47.42;97246.78;5049503;28;20482;-65
2022/04/13 08:09:19;;;;;;;4.35;1.30;;;;;;;15.89;47.09;97256.84;5065421;28;20268;-66
2022/04/13 08:11:46;;;;;;;3.10;1.15;;;;;;;16.03;46.84;97257.81;5072034;28;20039;-65
2022/04/13 08:14:12;;;;;;;3.50;1.65;;;;;;;16.27;42.77;97262.44;5086805;28;20043;-63
2022/04/13 08:16:39;;;;;;;3.97;1.23;;;;;;;16.48;41.05;97254.78;5065621;28;20171;-64
2022/04/13 08:19:06;;;;;;;3.72;0.88;;;;;;;16.66;40.58;97252.38;5082559;28;20043;-64
2022/04/13 08:21:33;;;;;;;4.03;0.93;;;;;;;16.78;40.80;97255.47;5060498;28;20056;-65
2022/04/13 08:23:59;;;;;;;4.15;1.10;;;;;;;16.90;41.78;97263.25;5054248;28;20037;-65
2022/04/13 08:26:26;;;;;;;6.80;1.50;;;;;;;16.92;40.99;97262.13;5060008;28;20127;-64
2022/04/13 08:28:53;;;;;;;4.00;1.65;;;;;;;16.92;40.66;97262.97;5059776;28;20075;-64
2022/04/13 08:31:19;;;;;;;5.38;1.20;;;;;;;17.02;41.03;97261.97;5050840;28;20056;-64
2022/04/13 08:33:46;;;;;;;5.75;1.80;;;;;;;17.11;41.75;97262.97;5049560;28;20095;-63
2022/04/13 08:36:14;;;;;;;7.35;1.35;;;;;;;17.14;41.41;97261.56;5056762;28;20052;-63
2022/04/13 08:38:41;;;;;;;8.02;1.30;;;;;;;17.22;41.72;97263.63;5054065;28;20451;-65
2022/04/13 08:41:16;;;;;;;3.08;1.00;;;;;;;17.31;40.97;97271.16;5060920;28;20060;-66
2022/04/13 08:43:56;;;;;;;4.10;1.08;;;;;;;17.35;41.94;97274.88;5062382;28;20044;-66
2022/04/13 08:46:25;;;;;;;8.02;1.20;;;;;;;17.42;41.56;97270.69;5045427;28;20467;-65
2022/04/13 08:48:56;;;;;;;5.00;1.00;;;;;;;17.40;41.70;97274.81;5068553;28;20566;-64
2022/04/13 08:51:45;;;;;;;4.80;1.25;;;;;;;17.53;41.58;97273.22;5049546;28;20515;-63
2022/04/13 08:54:19;;;;;;;3.60;1.25;;;;;;;17.59;41.70;97272.03;5061279;28;20401;-64
2022/04/13 08:56:48;;;;;;;3.40;1.00;;;;;;;17.71;41.75;97268.00;5046981;28;20037;-64
2022/04/13 09:00:15;;;;;;;4.15;1.38;;;;;;;17.80;40.57;97272.47;5054691;28;20041;-64
2022/04/13 09:02:45;;;;;;;7.88;1.40;;;;;;;17.94;40.20;97277.16;5057132;28;20046;-63
2022/04/13 09:05:18;;;;;;;4.53;1.38;;;;;;;18.02;39.80;97276.44;5067290;28;20044;-64
2022/04/13 09:07:48;;;;;;;2.85;1.05;;;;;;;18.15;39.00;97274.88;5059019;28;20041;-63
2022/04/13 09:10:21;;;;;;;4.70;1.90;;;;;;;18.21;38.38;97275.59;5050434;28;20049;-64
2022/04/13 09:12:50;;;;;;;4.60;1.67;;;;;;;18.20;37.87;97272.03;5055833;28;20037;-63
2022/04/13 09:15:17;;;;;;;7.53;1.38;;;;;;;18.24;37.20;97272.22;5064505;28;20058;-64
2022/04/13 09:17:44;;;;;;;6.40;1.30;;;;;;;18.12;37.34;97275.47;5046406;28;20046;-64
2022/04/13 09:20:11;;;;;;;6.72;1.27;;;;;;;18.25;38.00;97281.28;5062770;28;20420;-60
2022/04/13 09:22:39;;;;;;;4.90;0.98;;;;;;;18.20;37.81;97285.72;5060584;28;20083;-61
2022/04/13 09:25:08;;;;;;;5.53;1.63;;;;;;;18.34;37.78;97282.19;5062155;28;20045;-62
2022/04/13 09:27:36;;;;;;;5.75;1.10;;;;;;;18.46;37.61;97282.47;5042565;28;20052;-62
2022/04/13 09:30:05;;;;;;;3.60;0.90;;;;;;;18.44;37.48;97279.25;5040466;28;20060;-61
2022/04/13 09:32:32;;;;;;;8.70;1.10;;;;;;;18.43;37.00;97279.53;5058256;28;20044;-62
2022/04/13 09:34:59;;;;;;;3.70;1.30;;;;;;;18.39;37.95;97284.81;5044038;28;20602;-62
2022/04/13 09:37:26;;;;;;;5.95;1.40;;;;;;;18.49;37.81;97282.97;5055684;28;20064;-63
2022/04/13 09:39:53;;;;;;;3.75;1.10;;;;;;;18.53;38.32;97287.53;5062093;28;20056;-61
2022/04/13 09:42:25;;;;;;;6.15;1.17;;;;;;;18.51;37.29;97284.31;5044157;28;20047;-62
2022/04/13 09:44:56;;;;;;;2.88;0.90;;;;;;;18.53;37.32;97282.06;5056982;28;20049;-62
2022/04/13 09:47:29;;;;;;;8.50;1.40;;;;;;;18.58;37.74;97273.72;5061988;28;20139;-60
2022/04/13 09:49:56;;;;;;;10.38;1.55;;;;;;;18.58;37.22;97281.94;5048181;28;20068;-61
2022/04/13 09:52:31;;;;;;;9.35;1.38;;;;;;;18.71;37.61;97282.22;5051196;28;20446;-62
2022/04/13 09:54:58;;;;;;;3.13;1.10;;;;;;;18.80;37.10;97277.63;5045714;28;20056;-61
2022/04/13 09:57:25;;;;;;;5.78;1.00;;;;;;;18.62;36.67;97273.94;5043992;28;20053;-61
2022/04/13 09:59:57;;;;;;;3.53;1.30;;;;;;;18.72;38.55;97278.38;5051963;28;20040;-61
2022/04/13 10:02:37;;;;;;;4.85;1.35;;;;;;;18.89;38.18;97264.00;5043644;28;20052;-61
2022/04/13 10:05:05;;;;;;;6.95;1.40;;;;;;;19.02;38.27;97262.31;5058073;28;20072;-60
2022/04/13 10:07:32;;;;;;;7.07;1.23;;;;;;;19.07;37.75;97256.78;5054431;28;20056;-60
2022/04/13 10:09:59;;;;;;;3.15;1.23;;;;;;;19.13;38.57;97264.88;5060280;28;20045;-60
2022/04/13 10:12:26;;;;;;;6.55;1.60;;;;;;;19.18;39.24;97270.25;5047620;28;20055;-64
2022/04/13 10:14:52;;;;;;;5.47;1.40;;;;;;;19.21;39.14;97269.63;5054459;28;20041;-65
2022/04/13 10:17:20;;;;;;;7.35;1.40;;;;;;;19.32;39.18;97259.19;5052959;28;20036;-64
2022/04/13 10:19:57;;;;;;;9.27;2.15;;;;;;;19.34;38.91;97266.00;5054419;28;20045;-64
2022/04/13 10:22:24;;;;;;;4.43;1.80;;;;;;;19.19;38.88;97266.38;5047903;28;20047;-64
2022/04/13 10:24:50;;;;;;;6.07;2.42;;;;;;;19.35;37.67;97266.81;5043309;28;20068;-61
2022/04/13 10:27:19;;;;;;;7.15;1.30;;;;;;;19.40;38.23;97265.88;5068833;28;20101;-61
2022/04/13 10:29:48;;;;;;;5.95;1.67;;;;;;;19.50;38.16;97257.38;5050610;28;20118;-61
2022/04/13 10:32:17;;;;;;;8.38;1.50;;;;;;;19.57;37.33;97260.47;5055110;28;20045;-63
2022/04/13 10:34:52;;;;;;;6.60;1.40;;;;;;;19.62;36.92;97256.81;5064607;28;20122;-63
2022/04/13 10:37:21;;;;;;;5.05;1.45;;;;;;;19.62;37.56;97257.63;5048010;28;20044;-64
2022/04/13 10:39:49;;;;;;;5.18;1.80;;;;;;;19.72;37.11;97267.50;5054793;28;20041;-64
2022/04/13 10:42:17;;;;;;;3.35;1.52;;;;;;;19.83;37.21;97264.50;5047149;28;20525;-62
2022/04/13 10:44:55;;;;;;;4.75;1.50;;;;;;;19.85;37.14;97263.06;5044943;28;20036;-63
2022/04/13 10:47:30;;;;;;;4.90;2.15;;;;;;;19.96;37.35;97263.59;5050834;28;20055;-62
2022/04/13 10:50:00;;;;;;;6.43;1.88;;;;;;;20.02;38.27;97264.31;5046689;28;20045;-62
2022/04/13 10:52:39;;;;;;;4.97;1.50;;;;;;;20.10;37.94;97263.53;5049485;28;20041;-63
2022/04/13 10:55:14;;;;;;;6.68;1.60;;;;;;;20.05;38.56;97263.66;5050279;28;20050;-62
2022/04/13 10:57:59;;;;;;;6.53;1.50;;;;;;;20.08;38.04;97263.03;5050935;28;20048;-62
2022/04/13 11:00:31;;;;;;;4.90;1.60;;;;;;;20.16;37.96;97255.13;5046899;28;20300;-62
2022/04/13 11:02:59;;;;;;;5.07;1.60;;;;;;;20.22;37.62;97260.16;5060283;28;20040;-63
2022/04/13 11:05:26;;;;;;;6.72;1.65;;;;;;;20.33;37.37;97254.38;5049673;28;20041;-63
2022/04/13 11:08:14;;;;;;;6.32;1.55;;;;;;;20.38;36.96;97257.00;5058172;28;20123;-63
2022/04/13 11:10:43;;;;;;;5.80;1.60;;;;;;;20.25;36.84;97261.47;5051381;28;20048;-61
2022/04/13 11:13:10;;;;;;;6.63;2.10;;;;;;;20.42;37.15;97260.72;5048496;28;20512;-63
2022/04/13 11:15:43;;;;;;;9.77;1.70;;;;;;;20.33;37.14;97259.88;5056581;28;20103;-65
2022/04/13 11:18:17;;;;;;;10.98;1.63;;;;;;;20.51;37.44;97256.03;5056505;28;20506;-62
2022/04/13 11:21:02;;;;;;;8.70;1.52;;;;;;;20.71;36.41;97258.50;5057138;28;20128;-63
2022/04/13 11:23:47;;;;;;;4.00;1.30;;;;;;;20.80;34.74;97257.34;5056303;28;20037;-62
2022/04/13 11:26:34;;;;;;;5.20;1.40;;;;;;;20.91;34.83;97252.41;5058825;28;20048;-63
2022/04/13 11:29:14;;;;;;;6.60;1.20;;;;;;;20.90;35.31;97249.97;5039446;28;20154;-62
2022/04/13 11:31:59;;;;;;;7.68;1.67;;;;;;;20.92;34.24;97251.25;5061302;28;20056;-63
2022/04/13 11:34:35;;;;;;;5.20;1.67;;;;;;;20.99;33.42;97242.53;5057080;28;20045;-63
2022/04/13 11:37:04;;;;;;;4.03;1.50;;;;;;;20.95;33.19;97246.22;5056612;28;20072;-63
2022/04/13 11:39:44;;;;;;;6.40;1.30;;;;;;;21.07;34.57;97245.59;5050898;28;20047;-65
2022/04/13 11:42:14;;;;;;;5.43;1.40;;;;;;;20.98;34.10;97238.16;5059498;28;20129;-63
2022/04/13 11:44:51;;;;;;;5.35;1.83;;;;;;;20.75;35.17;97242.97;5046779;28;20060;-63